createdAt,value
2023-05-19T00:01:49.480Z,102272.09
2023-05-19T00:04:37.218Z,102273.78
2023-05-19T00:07:31.572Z,102281.81
2023-05-19T00:10:19.739Z,102280.97
2023-05-19T00:13:06.796Z,102277.47
2023-05-19T00:15:54.251Z,102282.72
2023-05-19T00:18:40.953Z,102274.81
2023-05-19T00:21:28.447Z,102281.00
2023-05-19T00:24:16.482Z,102275.69
2023-05-19T00:27:03.176Z,102278.34
2023-05-19T00:29:49.944Z,102272.19
2023-05-19T00:32:36.836Z,102273.09
2023-05-19T00:35:24.384Z,102267.81
2023-05-19T00:38:10.808Z,102265.16
2023-05-19T00:40:59.725Z,102266.03
2023-05-19T00:43:46.597Z,102262.53
2023-05-19T00:46:33.436Z,102265.16
2023-05-19T00:49:20.264Z,102270.41
2023-05-19T00:52:08.302Z,102265.13
2023-05-19T00:54:56.739Z,102268.66
2023-05-19T00:57:45.375Z,102266.03
2023-05-19T01:00:32.406Z,102270.44
2023-05-19T01:03:20.690Z,102281.00
2023-05-19T01:06:08.307Z,102271.31
2023-05-19T01:08:55.436Z,102244.00
2023-05-19T01:11:42.377Z,102271.28
2023-05-19T01:14:31.391Z,102266.00
2023-05-19T01:17:28.274Z,102269.53
2023-05-19T01:20:19.760Z,102261.59
2023-05-19T01:23:27.140Z,102215.84
2023-05-19T01:26:37.120Z,102266.03
2023-05-19T01:29:43.203Z,102261.59
2023-05-19T01:32:32.671Z,102237.84
2023-05-19T01:35:25.050Z,102266.91
2023-05-19T01:38:14.292Z,102273.91
2023-05-19T01:41:01.722Z,102264.25
2023-05-19T01:43:48.867Z,102279.22
2023-05-19T01:46:36.004Z,102278.34
2023-05-19T01:49:24.571Z,102271.28
2023-05-19T01:52:11.560Z,102273.94
2023-05-19T01:54:58.479Z,102267.78
2023-05-19T01:57:56.547Z,102274.81
2023-05-19T02:00:54.246Z,102273.94
2023-05-19T02:04:03.343Z,102267.78
2023-05-19T02:07:01.322Z,102277.44
2023-05-19T02:09:54.145Z,102279.25
2023-05-19T02:12:41.982Z,102247.53
2023-05-19T02:15:34.968Z,102269.56
2023-05-19T02:18:22.646Z,102273.09
2023-05-19T02:21:13.424Z,102269.56
2023-05-19T02:24:01.435Z,102266.06
2023-05-19T02:26:48.554Z,102271.34
2023-05-19T02:29:35.375Z,102278.38
2023-05-19T02:32:22.522Z,102274.84
2023-05-19T02:35:09.908Z,102266.94
2023-05-19T02:37:56.647Z,102266.94
2023-05-19T02:40:44.841Z,102265.19
2023-05-19T02:43:31.627Z,102259.00
2023-05-19T02:46:18.227Z,102259.03
2023-05-19T02:49:05.099Z,102222.06
2023-05-19T02:51:51.909Z,102253.72
2023-05-19T02:54:38.541Z,102259.03
2023-05-19T02:57:27.083Z,102254.63
2023-05-19T03:00:14.754Z,102249.34
2023-05-19T03:03:03.096Z,102252.88
2023-05-19T03:05:49.981Z,102254.66
2023-05-19T03:08:36.948Z,102234.38
2023-05-19T03:11:24.414Z,102256.41
2023-05-19T03:14:13.719Z,102248.47
2023-05-19T03:17:01.410Z,102209.69
2023-05-19T03:19:48.198Z,102249.34
2023-05-19T03:22:35.062Z,102245.84
2023-05-19T03:25:21.941Z,102247.59
2023-05-19T03:28:08.756Z,102165.72
2023-05-19T03:30:57.023Z,102261.69
2023-05-19T03:33:47.886Z,102251.13
2023-05-19T03:36:40.033Z,102254.63
2023-05-19T03:39:32.365Z,102242.28
2023-05-19T03:42:18.852Z,102253.75
2023-05-19T03:45:06.246Z,102259.91
2023-05-19T03:47:54.541Z,102259.03
2023-05-19T03:50:52.732Z,102255.50
2023-05-19T03:53:43.404Z,102266.03
2023-05-19T03:56:30.250Z,102266.91
2023-05-19T03:59:17.312Z,102264.25
2023-05-19T04:02:04.107Z,102263.41
2023-05-19T04:04:52.469Z,102269.56
2023-05-19T04:07:39.605Z,102265.97
2023-05-19T04:10:26.460Z,102267.75
2023-05-19T04:13:14.788Z,102261.53
2023-05-19T04:16:01.798Z,102261.47
2023-05-19T04:18:48.383Z,102258.75
2023-05-19T04:21:36.533Z,102254.28
2023-05-19T04:24:23.452Z,102258.63
2023-05-19T04:27:12.235Z,102258.56
2023-05-19T04:30:00.286Z,102261.97
2023-05-19T04:32:46.943Z,102259.19
2023-05-19T04:35:34.452Z,102267.00
2023-05-19T04:38:23.414Z,102269.44
2023-05-19T04:41:11.114Z,102265.88
2023-05-19T04:43:59.311Z,102269.34
2023-05-19T04:46:46.340Z,102266.59
2023-05-19T04:49:33.570Z,102265.56
2023-05-19T04:52:21.946Z,102269.09
2023-05-19T04:55:13.413Z,102265.56
2023-05-19T04:58:00.975Z,102260.94
2023-05-19T05:00:48.244Z,102259.94
2023-05-19T05:03:35.383Z,102265.00
2023-05-19T05:06:22.558Z,102250.50
2023-05-19T05:09:10.570Z,102254.47
2023-05-19T05:11:59.352Z,102254.28
2023-05-19T05:14:46.358Z,102260.19
2023-05-19T05:17:33.922Z,102265.47
2023-05-19T05:20:22.874Z,102267.91
2023-05-19T05:23:10.828Z,102270.53
2023-05-19T05:25:58.481Z,102264.28
2023-05-19T05:28:46.686Z,102261.19
2023-05-19T05:31:34.535Z,102257.41
2023-05-19T05:34:22.509Z,102257.16
2023-05-19T05:37:15.128Z,102253.38
2023-05-19T05:40:07.158Z,102261.19
2023-05-19T05:42:57.477Z,102265.66
2023-05-19T05:45:48.477Z,102221.91
2023-05-19T05:48:36.129Z,102254.41
2023-05-19T05:51:25.983Z,102189.97
2023-05-19T05:54:14.980Z,102259.25
2023-05-19T05:57:06.302Z,102256.75
2023-05-19T05:59:53.764Z,102264.69
2023-05-19T06:02:43.668Z,102266.13
2023-05-19T06:05:30.504Z,102266.16
2023-05-19T06:08:17.878Z,102264.25
2023-05-19T06:11:08.473Z,102260.41
2023-05-19T06:13:56.607Z,102260.16
2023-05-19T06:17:03.563Z,102255.09
2023-05-19T06:19:51.725Z,102249.69
2023-05-19T06:22:38.681Z,102250.91
2023-05-19T06:25:26.173Z,102248.81
2023-05-19T06:28:13.443Z,102249.88
2023-05-19T06:31:00.317Z,102254.53
2023-05-19T06:34:01.736Z,102257.84
2023-05-19T06:36:49.958Z,102254.44
2023-05-19T06:39:39.358Z,102236.31
2023-05-19T06:42:26.113Z,102257.88
2023-05-19T06:45:25.086Z,102251.06
2023-05-19T06:48:11.774Z,102258.78
2023-05-19T06:50:58.564Z,102261.56
2023-05-19T06:53:47.336Z,102252.97
2023-05-19T06:56:33.978Z,102251.16
2023-05-19T06:59:22.454Z,102251.72
2023-05-19T07:02:11.014Z,102261.50
2023-05-19T07:04:58.147Z,102254.81
2023-05-19T07:07:45.360Z,102255.44
2023-05-19T07:10:37.686Z,102249.75
2023-05-19T07:13:29.231Z,102249.19
2023-05-19T07:16:16.702Z,102249.75
2023-05-19T07:19:04.544Z,102255.91
2023-05-19T07:21:52.221Z,102258.38
2023-05-19T07:24:38.928Z,102261.41
2023-05-19T07:27:27.279Z,102261.69
2023-05-19T07:30:14.830Z,102261.97
2023-05-19T07:33:01.468Z,102250.50
2023-05-19T07:35:48.883Z,102256.41
2023-05-19T07:38:35.895Z,102255.97
2023-05-19T07:41:23.159Z,102244.81
2023-05-19T07:44:11.107Z,102250.72
2023-05-19T07:46:58.447Z,102239.13
2023-05-19T07:49:45.448Z,102243.59
2023-05-19T07:52:32.050Z,102239.66
2023-05-19T07:55:19.371Z,102243.56
2023-05-19T07:58:06.214Z,102232.41
2023-05-19T08:00:54.384Z,102229.66
2023-05-19T08:03:40.996Z,102231.41
2023-05-19T08:06:28.402Z,102229.84
2023-05-19T08:09:15.195Z,102236.72
2023-05-19T08:12:02.302Z,102236.47
2023-05-19T08:14:48.913Z,102240.25
2023-05-19T08:17:36.933Z,102238.28
2023-05-19T08:20:24.450Z,102233.84
2023-05-19T08:23:12.361Z,102238.72
2023-05-19T08:25:58.899Z,102231.44
2023-05-19T08:28:45.596Z,102236.69
2023-05-19T08:31:32.759Z,102240.47
2023-05-19T08:34:20.952Z,102238.97
2023-05-19T08:37:08.015Z,102238.47
2023-05-19T08:39:54.929Z,102232.34
2023-05-19T08:42:41.937Z,102223.75
2023-05-19T08:45:28.765Z,102226.69
2023-05-19T08:48:18.180Z,102232.47
2023-05-19T08:51:16.466Z,102226.84
2023-05-19T08:54:10.328Z,102222.69
2023-05-19T08:56:57.762Z,102222.69
2023-05-19T08:59:44.710Z,102213.59
2023-05-19T09:02:32.093Z,102221.63
2023-05-19T09:05:19.998Z,102228.81
2023-05-19T09:08:08.731Z,102220.88
2023-05-19T09:10:55.427Z,102215.38
2023-05-19T09:13:42.262Z,102212.19
2023-05-19T09:16:30.458Z,102205.47
2023-05-19T09:19:17.220Z,102209.09
2023-05-19T09:22:04.812Z,102206.09
2023-05-19T09:24:54.205Z,102199.94
2023-05-19T09:27:41.168Z,102203.16
2023-05-19T09:30:27.851Z,102200.50
2023-05-19T09:33:20.876Z,102191.16
2023-05-19T09:36:09.216Z,102195.34
2023-05-19T09:38:56.097Z,102197.78
2023-05-19T09:41:44.638Z,102188.09
2023-05-19T09:44:31.453Z,102191.53
2023-05-19T09:47:18.060Z,102184.28
2023-05-19T09:50:07.006Z,102196.03
2023-05-19T09:52:54.167Z,102177.66
2023-05-19T09:55:41.911Z,102185.56
2023-05-19T09:58:34.805Z,102184.19
2023-05-19T10:01:22.413Z,102171.97
2023-05-19T10:04:09.670Z,102173.31
2023-05-19T10:06:59.830Z,102176.25
2023-05-19T10:09:48.306Z,102168.34
2023-05-19T10:12:35.235Z,102168.34
2023-05-19T10:15:23.503Z,102174.00
2023-05-19T10:18:10.816Z,102148.72
2023-05-19T10:20:58.212Z,102166.53
2023-05-19T10:23:44.956Z,102167.03
2023-05-19T10:26:32.737Z,102171.88
2023-05-19T10:29:24.255Z,102175.47
2023-05-19T10:32:15.991Z,102176.97
2023-05-19T10:35:21.522Z,102168.72
2023-05-19T10:38:16.933Z,102166.84
2023-05-19T10:41:12.626Z,102162.66
2023-05-19T10:44:08.585Z,102155.56
2023-05-19T10:46:56.689Z,102148.84
2023-05-19T10:49:46.801Z,102147.78
2023-05-19T10:52:38.537Z,102143.16
2023-05-19T10:55:46.734Z,102144.47
2023-05-19T10:58:41.721Z,102139.38
2023-05-19T11:01:33.574Z,102112.66
2023-05-19T11:04:39.666Z,102137.09
2023-05-19T11:07:28.223Z,102134.16
2023-05-19T11:10:14.834Z,102132.69
2023-05-19T11:13:01.640Z,102094.06
2023-05-19T11:15:50.054Z,102126.53
2023-05-19T11:18:38.305Z,102128.00
2023-05-19T11:21:25.380Z,102129.84
2023-05-19T11:24:37.057Z,102127.97
2023-05-19T11:27:28.656Z,102135.69
2023-05-19T11:30:17.901Z,102129.13
2023-05-19T11:33:04.791Z,102124.16
2023-05-19T11:35:52.344Z,102128.25
2023-05-19T11:38:39.709Z,102123.38
2023-05-19T11:41:28.662Z,102126.53
2023-05-19T11:44:15.573Z,102130.59
2023-05-19T11:47:02.505Z,102114.94
2023-05-19T11:49:50.007Z,102117.66
2023-05-19T11:52:36.593Z,102120.59
2023-05-19T11:55:23.812Z,102113.22
2023-05-19T11:58:11.680Z,102121.22
2023-05-19T12:00:58.365Z,102126.59
2023-05-19T12:03:45.234Z,102123.91
2023-05-19T12:06:32.167Z,102119.13
2023-05-19T12:09:19.706Z,102117.22
2023-05-19T12:12:06.988Z,102077.94
2023-05-19T12:14:55.223Z,102110.97
2023-05-19T12:17:42.090Z,102110.59
2023-05-19T12:20:31.989Z,102109.47
2023-05-19T12:23:18.725Z,102102.25
2023-05-19T12:26:06.143Z,102100.84
2023-05-19T12:28:52.984Z,102105.78
2023-05-19T12:31:40.994Z,102117.41
2023-05-19T12:34:27.755Z,102114.16
2023-05-19T12:37:14.805Z,102111.69
2023-05-19T12:40:01.693Z,102102.50
2023-05-19T12:42:48.806Z,102113.22
2023-05-19T12:45:36.914Z,102111.47
2023-05-19T12:48:25.327Z,102109.22
2023-05-19T12:51:12.095Z,102116.56
2023-05-19T12:53:59.124Z,102114.22
2023-05-19T12:56:51.457Z,102109.56
2023-05-19T12:59:39.100Z,102101.75
2023-05-19T13:02:25.871Z,102106.34
2023-05-19T13:05:14.028Z,102102.53
2023-05-19T13:08:03.048Z,102103.72
2023-05-19T13:10:50.037Z,102085.56
2023-05-19T13:13:36.832Z,102096.34
2023-05-19T13:16:23.925Z,102091.91
2023-05-19T13:19:23.938Z,102096.78
2023-05-19T13:22:12.924Z,102096.31
2023-05-19T13:24:59.964Z,102080.13
2023-05-19T13:27:47.218Z,102076.06
2023-05-19T13:30:34.670Z,102084.38
2023-05-19T13:33:22.046Z,102084.22
2023-05-19T13:36:09.164Z,102087.53
2023-05-19T13:38:57.031Z,102082.34
2023-05-19T13:41:43.707Z,102085.13
2023-05-19T13:44:30.557Z,102093.84
2023-05-19T13:47:17.571Z,102077.66
2023-05-19T13:50:04.737Z,102082.94
2023-05-19T13:52:52.130Z,102093.88
2023-05-19T13:55:40.179Z,102083.09
2023-05-19T13:58:26.814Z,102086.25
2023-05-19T14:01:13.594Z,102089.13
2023-05-19T14:04:01.095Z,102092.53
2023-05-19T14:06:48.290Z,102091.91
2023-05-19T14:09:35.454Z,102089.56
2023-05-19T14:12:30.642Z,102090.44
2023-05-19T14:15:23.856Z,102085.53
2023-05-19T14:18:11.304Z,102092.66
2023-05-19T14:20:58.123Z,102081.72
2023-05-19T14:23:44.969Z,102084.53
2023-05-19T14:26:31.433Z,102084.50
2023-05-19T14:29:19.605Z,102084.38
2023-05-19T14:32:07.598Z,102081.66
2023-05-19T14:34:54.240Z,102092.09
2023-05-19T14:37:41.025Z,102101.38
2023-05-19T14:40:28.042Z,102087.59
2023-05-19T14:43:14.870Z,102097.47
2023-05-19T14:46:02.681Z,102102.38
2023-05-19T14:48:49.416Z,102106.91
2023-05-19T14:51:36.293Z,102109.84
2023-05-19T14:54:23.107Z,102102.53
2023-05-19T14:57:10.005Z,102106.59
2023-05-19T14:59:57.001Z,102110.53
2023-05-19T15:02:45.156Z,102106.16
2023-05-19T15:05:31.905Z,102099.03
2023-05-19T15:08:19.008Z,102093.78
2023-05-19T15:11:05.770Z,102095.94
2023-05-19T15:13:52.600Z,102096.28
2023-05-19T15:16:39.323Z,102093.94
2023-05-19T15:19:27.599Z,102094.34
2023-05-19T15:22:15.580Z,102095.94
2023-05-19T15:25:02.853Z,102097.94
2023-05-19T15:27:51.777Z,102101.22
2023-05-19T15:30:38.651Z,102106.97
2023-05-19T15:33:25.386Z,102103.88
2023-05-19T15:36:16.703Z,102095.16
2023-05-19T15:39:07.270Z,102097.59
2023-05-19T15:41:55.628Z,102084.50
2023-05-19T15:44:50.175Z,102084.84
2023-05-19T15:47:38.169Z,102089.34
2023-05-19T15:50:26.472Z,102083.94
2023-05-19T15:53:14.455Z,102087.75
2023-05-19T15:56:03.248Z,102074.44
2023-05-19T15:58:51.315Z,102080.78
2023-05-19T16:01:38.124Z,102077.19
2023-05-19T16:04:24.666Z,102079.63
2023-05-19T16:07:11.508Z,102069.84
2023-05-19T16:09:59.677Z,102070.31
2023-05-19T16:12:46.448Z,102076.53
2023-05-19T16:15:33.314Z,102081.81
2023-05-19T16:18:20.101Z,102071.59
2023-05-19T16:21:07.124Z,102071.91
2023-05-19T16:23:53.669Z,102065.72
2023-05-19T16:26:41.836Z,102063.50
2023-05-19T16:29:28.594Z,102063.69
2023-05-19T16:32:15.475Z,102066.75
2023-05-19T16:35:02.384Z,102068.03
2023-05-19T16:37:49.221Z,102063.28
2023-05-19T16:40:36.079Z,102068.81
2023-05-19T16:43:24.410Z,102066.84
2023-05-19T16:46:12.383Z,102062.41
2023-05-19T16:49:13.053Z,102066.53
2023-05-19T16:52:07.051Z,102064.78
2023-05-19T16:54:59.227Z,102062.06
2023-05-19T16:57:52.520Z,102062.72
2023-05-19T17:00:45.404Z,102065.56
2023-05-19T17:03:48.630Z,102061.56
2023-05-19T17:06:43.486Z,102065.84
2023-05-19T17:09:33.166Z,102064.41
2023-05-19T17:12:28.849Z,102062.22
2023-05-19T17:15:30.137Z,102068.84
2023-05-19T17:18:27.653Z,102067.97
2023-05-19T17:21:27.122Z,102066.84
2023-05-19T17:24:19.181Z,102070.03
2023-05-19T17:27:20.350Z,102070.03
2023-05-19T17:30:12.785Z,102067.91
2023-05-19T17:33:04.919Z,102069.78
2023-05-19T17:35:56.479Z,102070.19
2023-05-19T17:38:48.745Z,102074.31
2023-05-19T17:41:42.319Z,102028.19
2023-05-19T17:44:31.640Z,102083.50
2023-05-19T17:47:29.329Z,102066.06
2023-05-19T17:50:22.032Z,102067.13
2023-05-19T17:53:23.076Z,102079.53
2023-05-19T17:56:19.439Z,102078.09
2023-05-19T17:59:12.459Z,102083.63
2023-05-19T18:02:19.986Z,102091.53
2023-05-19T18:05:23.535Z,102086.66
2023-05-19T18:08:19.051Z,102083.34
2023-05-19T18:11:18.190Z,102088.06
2023-05-19T18:14:12.021Z,102092.16
2023-05-19T18:17:11.583Z,102087.06
2023-05-19T18:20:02.743Z,102085.63
2023-05-19T18:23:02.198Z,102083.94
2023-05-19T18:29:22.081Z,102095.97
2023-05-19T18:32:16.878Z,102080.66
2023-05-19T18:35:23.999Z,102095.44
2023-05-19T18:38:29.080Z,102098.22
2023-05-19T18:41:31.633Z,102100.75
2023-05-19T18:44:38.157Z,102101.00
2023-05-19T18:47:31.351Z,102110.19
2023-05-19T18:50:28.829Z,102117.34
2023-05-19T18:53:31.364Z,102116.63
2023-05-19T18:56:35.366Z,102124.75
2023-05-19T18:59:34.564Z,102121.66
2023-05-19T19:02:33.024Z,102122.19
2023-05-19T19:05:47.331Z,102121.97
2023-05-19T19:08:42.462Z,102119.53
2023-05-19T19:11:43.720Z,102124.78
2023-05-19T19:14:54.905Z,102119.53
2023-05-19T19:18:04.137Z,102121.81
2023-05-19T19:21:09.648Z,102126.44
2023-05-19T19:24:12.198Z,102136.72
2023-05-19T19:27:18.794Z,102128.22
2023-05-19T19:30:14.634Z,102137.00
2023-05-19T19:33:17.325Z,102133.63
2023-05-19T19:36:13.732Z,102127.22
2023-05-19T19:39:06.645Z,102132.69
2023-05-19T19:42:00.664Z,102123.09
2023-05-19T19:45:05.744Z,102128.16
2023-05-19T19:47:58.258Z,102127.09
2023-05-19T19:50:53.646Z,102128.50
2023-05-19T19:53:43.387Z,102128.91
2023-05-19T19:56:33.033Z,102129.00
2023-05-19T19:59:20.984Z,102126.53
2023-05-19T20:02:08.192Z,102132.88
2023-05-19T20:04:56.194Z,102126.72
2023-05-19T20:07:42.787Z,102128.56
2023-05-19T20:10:29.549Z,102132.38
2023-05-19T20:13:17.032Z,102135.13
2023-05-19T20:16:03.668Z,102135.94
2023-05-19T20:18:50.650Z,102133.56
2023-05-19T20:21:38.441Z,102127.75
2023-05-19T20:24:25.523Z,102128.72
2023-05-19T20:27:12.451Z,102132.34
2023-05-19T20:29:58.899Z,102132.00
2023-05-19T20:32:46.676Z,102136.53
2023-05-19T20:35:33.738Z,102146.44
2023-05-19T20:38:22.074Z,102145.59
2023-05-19T20:41:08.972Z,102147.72
2023-05-19T20:43:56.367Z,102144.16
2023-05-19T20:46:42.837Z,102149.69
2023-05-19T20:49:29.568Z,102149.03
2023-05-19T20:52:17.027Z,102146.84
2023-05-19T20:55:05.324Z,102150.56
2023-05-19T20:57:52.071Z,102148.69
2023-05-19T21:00:39.017Z,102155.41
2023-05-19T21:03:27.373Z,102146.66
2023-05-19T21:06:14.033Z,102151.53
2023-05-19T21:09:03.803Z,102155.06
2023-05-19T21:11:53.277Z,102157.00
2023-05-19T21:14:40.062Z,102165.97
2023-05-19T21:17:26.946Z,102158.09
2023-05-19T21:20:13.972Z,102156.22
2023-05-19T21:23:00.747Z,102159.28
2023-05-19T21:25:47.581Z,102165.75
2023-05-19T21:28:35.950Z,102165.69
2023-05-19T21:31:22.858Z,102164.00
2023-05-19T21:34:09.500Z,102164.19
2023-05-19T21:36:56.745Z,102176.84
2023-05-19T21:39:43.356Z,102178.84
2023-05-19T21:42:30.140Z,102178.94
2023-05-19T21:45:18.550Z,102182.41
2023-05-19T21:48:06.124Z,102184.28
2023-05-19T21:50:54.459Z,102184.06
2023-05-19T21:53:41.090Z,102180.78
2023-05-19T21:56:27.726Z,102188.75
2023-05-19T21:59:14.569Z,102186.09
2023-05-19T22:02:02.818Z,102186.28
2023-05-19T22:04:49.413Z,102190.66
2023-05-19T22:07:36.236Z,102188.31
2023-05-19T22:10:23.329Z,102193.81
2023-05-19T22:13:09.751Z,102193.84
2023-05-19T22:15:57.452Z,102188.41
2023-05-19T22:18:45.938Z,102185.59
2023-05-19T22:21:32.619Z,102193.72
2023-05-19T22:24:19.670Z,102188.50
2023-05-19T22:27:08.675Z,102174.41
2023-05-19T22:29:55.608Z,102200.00
2023-05-19T22:32:42.338Z,102198.16
2023-05-19T22:35:30.552Z,102199.13
2023-05-19T22:38:17.609Z,102200.06
2023-05-19T22:41:04.476Z,102193.81
2023-05-19T22:43:51.389Z,102197.53
2023-05-19T22:46:38.379Z,102165.09
2023-05-19T22:49:25.835Z,102193.16
2023-05-19T22:52:14.411Z,102196.69
2023-05-19T22:55:00.921Z,102200.19
2023-05-19T22:57:47.841Z,102205.66
2023-05-19T23:00:34.586Z,102201.28
2023-05-19T23:03:21.412Z,102196.00
2023-05-19T23:06:08.236Z,102198.72
2023-05-19T23:09:03.685Z,102196.03
2023-05-19T23:11:50.341Z,102191.66
2023-05-19T23:14:37.041Z,102195.22
2023-05-19T23:17:23.916Z,102200.69
2023-05-19T23:20:11.764Z,102197.03
2023-05-19T23:22:58.186Z,102195.38
2023-05-19T23:25:46.652Z,102191.63
2023-05-19T23:28:33.276Z,102195.06
2023-05-19T23:31:20.355Z,102203.25
2023-05-19T23:34:07.040Z,102191.03
2023-05-19T23:36:53.829Z,102196.38
2023-05-19T23:39:40.578Z,102192.00
2023-05-19T23:42:28.566Z,102196.44
2023-05-19T23:45:15.378Z,102190.28
2023-05-19T23:48:02.419Z,102190.22
2023-05-19T23:50:49.118Z,102190.03
2023-05-19T23:53:36.120Z,102192.09
2023-05-19T23:56:22.991Z,102198.13
2023-05-19T23:59:11.322Z,102192.78
